sensor_id;sensor_type;location;lat;lon;timestamp;pressure;altitude;pressure_sealevel;temperature;humidity
50302;BME280;36550;50.472;19.744;2023-03-14T00:03:15;96637.27;;;7.59;64.58
50302;BME280;36550;50.472;19.744;2023-03-14T00:06:39;96628.35;;;7.53;64.64
50302;BME280;36550;50.472;19.744;2023-03-14T00:10:12;96622.71;;;7.47;64.80
50302;BME280;36550;50.472;19.744;2023-03-14T00:13:27;96614.42;;;7.47;65.12
50302;BME280;36550;50.472;19.744;2023-03-14T00:16:51;96607.80;;;7.61;65.33
50302;BME280;36550;50.472;19.744;2023-03-14T00:20:15;96594.94;;;7.73;65.44
50302;BME280;36550;50.472;19.744;2023-03-14T00:23:40;96585.13;;;7.85;65.07
50302;BME280;36550;50.472;19.744;2023-03-14T00:27:02;96573.20;;;7.97;64.94
50302;BME280;36550;50.472;19.744;2023-03-14T00:30:26;96563.09;;;8.02;64.67
50302;BME280;36550;50.472;19.744;2023-03-14T00:33:51;96556.94;;;8.03;64.72
50302;BME280;36550;50.472;19.744;2023-03-14T00:37:15;96556.72;;;8.03;64.46
50302;BME280;36550;50.472;19.744;2023-03-14T00:40:39;96565.17;;;8.01;64.50
50302;BME280;36550;50.472;19.744;2023-03-14T00:44:03;96567.52;;;8.00;64.40
50302;BME280;36550;50.472;19.744;2023-03-14T00:47:27;96562.85;;;7.97;64.45
50302;BME280;36550;50.472;19.744;2023-03-14T00:50:51;96552.16;;;7.90;64.54
50302;BME280;36550;50.472;19.744;2023-03-14T00:54:15;96541.64;;;7.80;64.58
50302;BME280;36550;50.472;19.744;2023-03-14T00:57:39;96520.39;;;7.69;64.57
50302;BME280;36550;50.472;19.744;2023-03-14T01:01:14;96503.34;;;7.60;64.66
50302;BME280;36550;50.472;19.744;2023-03-14T01:04:36;96499.35;;;7.47;64.66
50302;BME280;36550;50.472;19.744;2023-03-14T01:08:01;96495.67;;;7.34;64.97
50302;BME280;36550;50.472;19.744;2023-03-14T01:10:44;96496.48;;;7.22;65.03
50302;BME280;36550;50.472;19.744;2023-03-14T01:14:09;96486.48;;;7.06;65.58
50302;BME280;36550;50.472;19.744;2023-03-14T01:17:33;96476.41;;;6.86;65.64
50302;BME280;36550;50.472;19.744;2023-03-14T01:20:57;96476.25;;;6.67;65.63
50302;BME280;36550;50.472;19.744;2023-03-14T01:24:21;96477.33;;;6.55;65.71
50302;BME280;36550;50.472;19.744;2023-03-14T01:27:45;96466.69;;;6.43;65.88
50302;BME280;36550;50.472;19.744;2023-03-14T01:30:29;96459.10;;;6.35;65.89
50302;BME280;36550;50.472;19.744;2023-03-14T01:33:13;96456.14;;;6.26;66.05
50302;BME280;36550;50.472;19.744;2023-03-14T01:35:59;96452.38;;;6.20;66.16
50302;BME280;36550;50.472;19.744;2023-03-14T01:39:23;96448.84;;;6.10;66.29
50302;BME280;36550;50.472;19.744;2023-03-14T01:42:57;96445.42;;;6.03;66.56
50302;BME280;36550;50.472;19.744;2023-03-14T01:46:22;96434.44;;;5.94;66.66
50302;BME280;36550;50.472;19.744;2023-03-14T01:49:45;96421.95;;;5.84;66.82
50302;BME280;36550;50.472;19.744;2023-03-14T01:52:34;96421.08;;;5.75;67.00
50302;BME280;36550;50.472;19.744;2023-03-14T01:55:26;96415.59;;;5.66;67.19
50302;BME280;36550;50.472;19.744;2023-03-14T01:58:12;96411.74;;;5.56;67.21
50302;BME280;36550;50.472;19.744;2023-03-14T02:00:57;96410.34;;;5.49;67.40
50302;BME280;36550;50.472;19.744;2023-03-14T02:03:45;96406.95;;;5.40;67.41
50302;BME280;36550;50.472;19.744;2023-03-14T02:06:35;96396.20;;;5.33;67.67
50302;BME280;36550;50.472;19.744;2023-03-14T02:09:22;96382.08;;;5.23;67.60
50302;BME280;36550;50.472;19.744;2023-03-14T02:12:08;96376.09;;;5.16;67.85
50302;BME280;36550;50.472;19.744;2023-03-14T02:15:31;96374.30;;;5.03;67.76
50302;BME280;36550;50.472;19.744;2023-03-14T02:18:56;96371.30;;;4.89;67.85
50302;BME280;36550;50.472;19.744;2023-03-14T02:22:20;96361.58;;;4.77;68.15
50302;BME280;36550;50.472;19.744;2023-03-14T02:29:08;96351.30;;;4.61;68.49
50302;BME280;36550;50.472;19.744;2023-03-14T02:32:33;96347.11;;;4.56;68.72
50302;BME280;36550;50.472;19.744;2023-03-14T02:35:58;96350.48;;;4.52;68.99
50302;BME280;36550;50.472;19.744;2023-03-14T02:39:29;96352.80;;;4.47;69.10
50302;BME280;36550;50.472;19.744;2023-03-14T02:42:50;96347.20;;;4.44;69.43
50302;BME280;36550;50.472;19.744;2023-03-14T02:46:15;96347.79;;;4.42;69.39
50302;BME280;36550;50.472;19.744;2023-03-14T02:49:38;96349.65;;;4.39;69.56
50302;BME280;36550;50.472;19.744;2023-03-14T02:52:22;96356.40;;;4.38;69.60
50302;BME280;36550;50.472;19.744;2023-03-14T02:55:06;96357.88;;;4.36;69.68
50302;BME280;36550;50.472;19.744;2023-03-14T02:57:50;96361.42;;;4.35;69.82
50302;BME280;36550;50.472;19.744;2023-03-14T03:01:14;96358.46;;;4.32;69.92
50302;BME280;36550;50.472;19.744;2023-03-14T03:04:39;96361.25;;;4.30;69.95
50302;BME280;36550;50.472;19.744;2023-03-14T03:08:03;96365.83;;;4.28;70.06
50302;BME280;36550;50.472;19.744;2023-03-14T03:11:28;96365.10;;;4.24;70.14
50302;BME280;36550;50.472;19.744;2023-03-14T03:14:52;96366.16;;;4.19;70.18
50302;BME280;36550;50.472;19.744;2023-03-14T03:18:15;96374.66;;;4.12;70.23
50302;BME280;36550;50.472;19.744;2023-03-14T03:21:40;96380.45;;;4.05;70.28
50302;BME280;36550;50.472;19.744;2023-03-14T03:25:05;96386.10;;;3.99;70.33
50302;BME280;36550;50.472;19.744;2023-03-14T03:28:29;96383.79;;;3.92;70.44
50302;BME280;36550;50.472;19.744;2023-03-14T03:31:53;96377.02;;;3.85;70.59
50302;BME280;36550;50.472;19.744;2023-03-14T03:35:18;96386.14;;;3.81;70.72
50302;BME280;36550;50.472;19.744;2023-03-14T03:38:42;96388.73;;;3.75;71.40
50302;BME280;36550;50.472;19.744;2023-03-14T03:42:06;96389.13;;;3.67;70.57
50302;BME280;36550;50.472;19.744;2023-03-14T03:45:30;96384.11;;;3.62;70.89
50302;BME280;36550;50.472;19.744;2023-03-14T03:48:57;96374.85;;;3.63;71.17
50302;BME280;36550;50.472;19.744;2023-03-14T03:52:20;96365.47;;;3.66;71.41
50302;BME280;36550;50.472;19.744;2023-03-14T03:55:45;96367.88;;;3.73;71.68
50302;BME280;36550;50.472;19.744;2023-03-14T03:59:09;96371.73;;;3.79;71.75
50302;BME280;36550;50.472;19.744;2023-03-14T04:02:33;96374.45;;;3.83;72.24
50302;BME280;36550;50.472;19.744;2023-03-14T04:06:01;96390.28;;;3.75;73.24
50302;BME280;36550;50.472;19.744;2023-03-14T04:09:24;96404.25;;;3.65;73.21
50302;BME280;36550;50.472;19.744;2023-03-14T04:12:48;96415.03;;;3.62;72.92
50302;BME280;36550;50.472;19.744;2023-03-14T04:16:14;96433.68;;;3.63;73.00
50302;BME280;36550;50.472;19.744;2023-03-14T04:19:37;96431.25;;;3.63;73.56
50302;BME280;36550;50.472;19.744;2023-03-14T04:23:02;96429.42;;;3.68;74.46
50302;BME280;36550;50.472;19.744;2023-03-14T04:26:26;96418.76;;;3.72;74.22
50302;BME280;36550;50.472;19.744;2023-03-14T04:29:44;96422.23;;;3.77;74.44
50302;BME280;36550;50.472;19.744;2023-03-14T04:33:08;96418.06;;;3.81;74.15
50302;BME280;36550;50.472;19.744;2023-03-14T04:36:32;96413.64;;;3.83;73.95
50302;BME280;36550;50.472;19.744;2023-03-14T04:39:56;96397.03;;;3.83;73.62
50302;BME280;36550;50.472;19.744;2023-03-14T04:43:20;96383.73;;;3.80;73.34
50302;BME280;36550;50.472;19.744;2023-03-14T04:46:45;96384.11;;;3.67;73.09
50302;BME280;36550;50.472;19.744;2023-03-14T04:50:09;96376.58;;;3.58;73.10
50302;BME280;36550;50.472;19.744;2023-03-14T04:53:34;96374.85;;;3.52;73.16
50302;BME280;36550;50.472;19.744;2023-03-14T04:56:58;96375.00;;;3.46;73.32
50302;BME280;36550;50.472;19.744;2023-03-14T05:00:21;96372.59;;;3.43;73.58
50302;BME280;36550;50.472;19.744;2023-03-14T05:03:46;96365.36;;;3.39;73.59
50302;BME280;36550;50.472;19.744;2023-03-14T05:07:10;96373.89;;;3.38;73.76
50302;BME280;36550;50.472;19.744;2023-03-14T05:10:34;96370.13;;;3.37;73.81
50302;BME280;36550;50.472;19.744;2023-03-14T05:13:59;96367.67;;;3.39;74.14
50302;BME280;36550;50.472;19.744;2023-03-14T05:17:22;96363.39;;;3.42;74.91
50302;BME280;36550;50.472;19.744;2023-03-14T05:20:49;96362.10;;;3.48;74.63
50302;BME280;36550;50.472;19.744;2023-03-14T05:24:11;96357.95;;;3.53;74.35
50302;BME280;36550;50.472;19.744;2023-03-14T05:27:35;96352.86;;;3.58;74.20
50302;BME280;36550;50.472;19.744;2023-03-14T05:31:00;96337.65;;;3.69;74.32
50302;BME280;36550;50.472;19.744;2023-03-14T05:34:24;96330.21;;;3.79;74.55
50302;BME280;36550;50.472;19.744;2023-03-14T05:37:48;96323.39;;;3.90;74.59
50302;BME280;36550;50.472;19.744;2023-03-14T05:41:12;96322.70;;;3.98;74.65
50302;BME280;36550;50.472;19.744;2023-03-14T05:44:35;96306.05;;;4.07;74.47
50302;BME280;36550;50.472;19.744;2023-03-14T05:47:59;96302.21;;;4.18;74.84
50302;BME280;36550;50.472;19.744;2023-03-14T05:51:23;96289.41;;;4.32;74.91
50302;BME280;36550;50.472;19.744;2023-03-14T05:54:47;96293.73;;;4.48;74.67
50302;BME280;36550;50.472;19.744;2023-03-14T05:58:12;96288.83;;;4.64;74.54
50302;BME280;36550;50.472;19.744;2023-03-14T06:01:36;96289.67;;;4.80;74.44
50302;BME280;36550;50.472;19.744;2023-03-14T06:05:00;96288.75;;;4.94;74.24
50302;BME280;36550;50.472;19.744;2023-03-14T06:08:24;96289.57;;;5.08;74.14
50302;BME280;36550;50.472;19.744;2023-03-14T06:11:49;96289.64;;;5.23;74.14
50302;BME280;36550;50.472;19.744;2023-03-14T06:15:13;96292.32;;;5.38;74.37
50302;BME280;36550;50.472;19.744;2023-03-14T06:18:38;96287.08;;;5.50;74.25
50302;BME280;36550;50.472;19.744;2023-03-14T06:22:02;96284.98;;;5.59;74.10
50302;BME280;36550;50.472;19.744;2023-03-14T06:25:26;96273.92;;;5.67;74.05
50302;BME280;36550;50.472;19.744;2023-03-14T06:28:50;96275.55;;;5.74;73.88
50302;BME280;36550;50.472;19.744;2023-03-14T06:32:14;96280.92;;;5.78;74.21
50302;BME280;36550;50.472;19.744;2023-03-14T06:35:38;96285.95;;;5.84;73.90
50302;BME280;36550;50.472;19.744;2023-03-14T06:39:03;96277.63;;;5.93;73.75
50302;BME280;36550;50.472;19.744;2023-03-14T06:42:27;96275.21;;;6.07;73.77
50302;BME280;36550;50.472;19.744;2023-03-14T06:45:52;96265.35;;;6.20;73.87
50302;BME280;36550;50.472;19.744;2023-03-14T06:49:17;96261.30;;;6.36;73.87
50302;BME280;36550;50.472;19.744;2023-03-14T06:52:40;96252.52;;;6.56;74.05
50302;BME280;36550;50.472;19.744;2023-03-14T06:56:05;96247.33;;;6.77;74.11
50302;BME280;36550;50.472;19.744;2023-03-14T06:59:29;96248.15;;;6.99;73.96
50302;BME280;36550;50.472;19.744;2023-03-14T07:02:53;96244.41;;;7.16;73.60
50302;BME280;36550;50.472;19.744;2023-03-14T07:06:18;96249.94;;;7.28;73.35
50302;BME280;36550;50.472;19.744;2023-03-14T07:09:42;96248.04;;;7.38;73.20
50302;BME280;36550;50.472;19.744;2023-03-14T07:13:06;96252.49;;;7.46;72.95
50302;BME280;36550;50.472;19.744;2023-03-14T07:16:30;96244.17;;;7.56;72.76
50302;BME280;36550;50.472;19.744;2023-03-14T07:19:35;96240.95;;;7.65;72.73
50302;BME280;36550;50.472;19.744;2023-03-14T07:22:19;96243.67;;;7.76;72.77
50302;BME280;36550;50.472;19.744;2023-03-14T07:25:03;96238.15;;;7.89;72.68
50302;BME280;36550;50.472;19.744;2023-03-14T07:27:47;96229.80;;;8.03;72.40
50302;BME280;36550;50.472;19.744;2023-03-14T07:31:11;96231.73;;;8.22;72.15
50302;BME280;36550;50.472;19.744;2023-03-14T07:34:35;96236.64;;;8.43;72.05
50302;BME280;36550;50.472;19.744;2023-03-14T07:37:58;96240.01;;;8.67;72.11
50302;BME280;36550;50.472;19.744;2023-03-14T07:41:04;96241.98;;;8.90;72.08
50302;BME280;36550;50.472;19.744;2023-03-14T07:44:27;96248.24;;;9.20;71.98
50302;BME280;36550;50.472;19.744;2023-03-14T07:47:50;96251.63;;;9.48;71.65
50302;BME280;36550;50.472;19.744;2023-03-14T07:51:14;96256.01;;;9.78;71.47
50302;BME280;36550;50.472;19.744;2023-03-14T07:54:38;96254.60;;;10.06;71.10
50302;BME280;36550;50.472;19.744;2023-03-14T07:58:02;96256.23;;;10.35;70.93
50302;BME280;36550;50.472;19.744;2023-03-14T08:01:26;96249.12;;;10.62;70.48
50302;BME280;36550;50.472;19.744;2023-03-14T08:04:50;96261.02;;;10.89;70.40
50302;BME280;36550;50.472;19.744;2023-03-14T08:08:14;96261.85;;;11.13;70.07
50302;BME280;36550;50.472;19.744;2023-03-14T08:11:37;96266.55;;;11.33;69.76
50302;BME280;36550;50.472;19.744;2023-03-14T08:15:02;96279.04;;;11.51;69.41
50302;BME280;36550;50.472;19.744;2023-03-14T08:18:06;96272.98;;;11.62;68.88
50302;BME280;36550;50.472;19.744;2023-03-14T08:21:29;96272.20;;;11.75;68.35
50302;BME280;36550;50.472;19.744;2023-03-14T08:24:53;96270.61;;;11.92;67.89
50302;BME280;36550;50.472;19.744;2023-03-14T08:28:17;96262.79;;;12.14;67.22
50302;BME280;36550;50.472;19.744;2023-03-14T08:31:01;96265.81;;;12.29;67.12
50302;BME280;36550;50.472;19.744;2023-03-14T08:33:45;96268.69;;;12.46;66.98
50302;BME280;36550;50.472;19.744;2023-03-14T08:37:09;96261.95;;;12.64;65.92
50302;BME280;36550;50.472;19.744;2023-03-14T08:40:33;96264.13;;;12.76;64.89
50302;BME280;36550;50.472;19.744;2023-03-14T08:43:58;96247.29;;;12.83;64.36
50302;BME280;36550;50.472;19.744;2023-03-14T08:47:21;96243.36;;;12.88;63.51
50302;BME280;36550;50.472;19.744;2023-03-14T08:50:05;96246.13;;;12.95;62.98
50302;BME280;36550;50.472;19.744;2023-03-14T08:52:50;96247.84;;;13.07;62.80
50302;BME280;36550;50.472;19.744;2023-03-14T08:55:34;96250.08;;;13.22;61.70
50302;BME280;36550;50.472;19.744;2023-03-14T08:58:18;96255.34;;;13.40;61.33
50302;BME280;36550;50.472;19.744;2023-03-14T09:01:42;96259.23;;;13.60;61.73
50302;BME280;36550;50.472;19.744;2023-03-14T09:05:05;96260.96;;;13.73;60.15
50302;BME280;36550;50.472;19.744;2023-03-14T09:08:29;96261.85;;;13.78;58.50
50302;BME280;36550;50.472;19.744;2023-03-14T09:11:54;96272.46;;;13.75;57.85
50302;BME280;36550;50.472;19.744;2023-03-14T09:15:17;96278.54;;;13.72;57.90
50302;BME280;36550;50.472;19.744;2023-03-14T09:18:21;96285.87;;;13.70;56.10
50302;BME280;36550;50.472;19.744;2023-03-14T09:21:45;96281.11;;;13.71;57.06
50302;BME280;36550;50.472;19.744;2023-03-14T09:25:09;96276.04;;;13.80;56.36
50302;BME280;36550;50.472;19.744;2023-03-14T09:27:55;96268.11;;;13.95;55.72
50302;BME280;36550;50.472;19.744;2023-03-14T09:31:05;96266.20;;;14.12;55.33
50302;BME280;36550;50.472;19.744;2023-03-14T09:34:23;96265.35;;;14.28;53.52
50302;BME280;36550;50.472;19.744;2023-03-14T09:37:46;96267.71;;;14.44;53.75
50302;BME280;36550;50.472;19.744;2023-03-14T09:40:51;96265.03;;;14.57;53.75
50302;BME280;36550;50.472;19.744;2023-03-14T09:44:21;96276.67;;;14.69;52.30
50302;BME280;36550;50.472;19.744;2023-03-14T09:47:40;96275.37;;;14.78;52.19
50302;BME280;36550;50.472;19.744;2023-03-14T09:50:51;96271.27;;;14.80;52.73
50302;BME280;36550;50.472;19.744;2023-03-14T09:53:39;96273.16;;;14.76;52.19
50302;BME280;36550;50.472;19.744;2023-03-14T09:57:00;96277.31;;;14.62;52.47
50302;BME280;36550;50.472;19.744;2023-03-14T10:00:28;96277.05;;;14.42;52.15
50302;BME280;36550;50.472;19.744;2023-03-14T10:03:48;96271.47;;;14.19;51.46
50302;BME280;36550;50.472;19.744;2023-03-14T10:07:13;96254.74;;;14.17;52.44
50302;BME280;36550;50.472;19.744;2023-03-14T10:10:18;96257.70;;;14.32;51.84
50302;BME280;36550;50.472;19.744;2023-03-14T10:13:48;96261.66;;;14.59;52.67
50302;BME280;36550;50.472;19.744;2023-03-14T10:17:11;96268.73;;;14.92;52.23
50302;BME280;36550;50.472;19.744;2023-03-14T10:20:35;96266.34;;;15.06;51.38
50302;BME280;36550;50.472;19.744;2023-03-14T10:24:18;96265.81;;;15.22;51.52
50302;BME280;36550;50.472;19.744;2023-03-14T10:27:35;96267.94;;;15.28;49.86
50302;BME280;36550;50.472;19.744;2023-03-14T10:30:45;96264.83;;;15.29;50.61
50302;BME280;36550;50.472;19.744;2023-03-14T10:34:09;96274.52;;;15.39;50.66
50302;BME280;36550;50.472;19.744;2023-03-14T10:37:32;96275.48;;;15.49;50.50
50302;BME280;36550;50.472;19.744;2023-03-14T10:40:39;96281.61;;;15.43;49.89
50302;BME280;36550;50.472;19.744;2023-03-14T10:44:02;96277.21;;;15.21;49.41
50302;BME280;36550;50.472;19.744;2023-03-14T10:47:14;96282.37;;;15.10;49.76
50302;BME280;36550;50.472;19.744;2023-03-14T10:50:27;96291.04;;;15.02;49.43
50302;BME280;36550;50.472;19.744;2023-03-14T10:53:58;96296.82;;;14.93;50.54
50302;BME280;36550;50.472;19.744;2023-03-14T10:57:20;96293.81;;;14.95;50.59
50302;BME280;36550;50.472;19.744;2023-03-14T11:00:24;96282.73;;;14.98;49.90
50302;BME280;36550;50.472;19.744;2023-03-14T11:03:53;96279.08;;;15.04;50.49
50302;BME280;36550;50.472;19.744;2023-03-14T11:10:37;96282.33;;;15.07;50.96
50302;BME280;36550;50.472;19.744;2023-03-14T11:17:23;96277.94;;;14.69;51.27
50302;BME280;36550;50.472;19.744;2023-03-14T11:20:27;96280.14;;;14.52;51.96
50302;BME280;36550;50.472;19.744;2023-03-14T11:24:08;96277.71;;;14.30;51.99
50302;BME280;36550;50.472;19.744;2023-03-14T11:27:30;96269.80;;;14.16;53.14
50302;BME280;36550;50.472;19.744;2023-03-14T11:33:44;96279.38;;;14.01;53.37
50302;BME280;36550;50.472;19.744;2023-03-14T11:40:26;96287.54;;;13.85;53.62
50302;BME280;36550;50.472;19.744;2023-03-14T11:43:53;96286.74;;;13.78;54.48
50302;BME280;36550;50.472;19.744;2023-03-14T11:47:03;96282.25;;;13.71;54.70
50302;BME280;36550;50.472;19.744;2023-03-14T11:50:12;96283.04;;;13.63;55.17
50302;BME280;36550;50.472;19.744;2023-03-14T11:54:16;96275.13;;;13.51;54.97
50302;BME280;36550;50.472;19.744;2023-03-14T11:57:32;96260.08;;;13.37;55.12
50302;BME280;36550;50.472;19.744;2023-03-14T12:00:29;96251.35;;;13.30;55.56
50302;BME280;36550;50.472;19.744;2023-03-14T12:04:08;96240.39;;;13.27;55.75
50302;BME280;36550;50.472;19.744;2023-03-14T12:07:29;96241.95;;;13.25;55.72
50302;BME280;36550;50.472;19.744;2023-03-14T12:10:58;96246.30;;;13.24;55.90
50302;BME280;36550;50.472;19.744;2023-03-14T12:14:23;96240.98;;;13.24;56.01
50302;BME280;36550;50.472;19.744;2023-03-14T12:17:46;96235.17;;;13.25;56.12
50302;BME280;36550;50.472;19.744;2023-03-14T12:20:51;96229.69;;;13.28;56.16
50302;BME280;36550;50.472;19.744;2023-03-14T12:24:17;96229.96;;;13.24;56.33
50302;BME280;36550;50.472;19.744;2023-03-14T12:30:42;96239.09;;;13.18;56.69
50302;BME280;36550;50.472;19.744;2023-03-14T12:34:25;96247.64;;;13.15;57.12
50302;BME280;36550;50.472;19.744;2023-03-14T12:37:36;96256.09;;;13.14;57.09
50302;BME280;36550;50.472;19.744;2023-03-14T12:41:02;96261.71;;;13.17;57.46
50302;BME280;36550;50.472;19.744;2023-03-14T12:47:41;96267.43;;;13.23;57.86
50302;BME280;36550;50.472;19.744;2023-03-14T12:50:40;96269.00;;;13.19;57.80
50302;BME280;36550;50.472;19.744;2023-03-14T12:54:09;96269.14;;;13.09;57.85
50302;BME280;36550;50.472;19.744;2023-03-14T12:57:35;96257.45;;;12.98;58.23
50302;BME280;36550;50.472;19.744;2023-03-14T13:00:59;96253.73;;;12.85;58.30
50302;BME280;36550;50.472;19.744;2023-03-14T13:04:08;96264.67;;;12.77;58.72
50302;BME280;36550;50.472;19.744;2023-03-14T13:07:33;96267.98;;;12.63;59.05
50302;BME280;36550;50.472;19.744;2023-03-14T13:10:55;96265.60;;;12.51;59.39
50302;BME280;36550;50.472;19.744;2023-03-14T13:14:19;96261.02;;;12.42;59.62
50302;BME280;36550;50.472;19.744;2023-03-14T13:17:43;96263.88;;;12.34;60.02
50302;BME280;36550;50.472;19.744;2023-03-14T13:20:52;96267.66;;;12.25;59.97
50302;BME280;36550;50.472;19.744;2023-03-14T13:24:21;96267.73;;;12.20;60.12
50302;BME280;36550;50.472;19.744;2023-03-14T13:27:42;96268.90;;;12.20;60.33
50302;BME280;36550;50.472;19.744;2023-03-14T13:30:48;96275.56;;;12.18;60.34
50302;BME280;36550;50.472;19.744;2023-03-14T13:34:11;96275.61;;;12.11;60.41
50302;BME280;36550;50.472;19.744;2023-03-14T13:37:38;96274.20;;;12.03;60.64
50302;BME280;36550;50.472;19.744;2023-03-14T13:41:00;96273.26;;;11.96;60.77
50302;BME280;36550;50.472;19.744;2023-03-14T13:44:24;96279.53;;;11.91;60.97
50302;BME280;36550;50.472;19.744;2023-03-14T13:47:46;96279.40;;;11.86;61.04
50302;BME280;36550;50.472;19.744;2023-03-14T13:51:11;96285.56;;;11.83;61.62
50302;BME280;36550;50.472;19.744;2023-03-14T13:54:35;96284.56;;;11.82;61.65
50302;BME280;36550;50.472;19.744;2023-03-14T13:57:58;96286.67;;;11.78;61.85
50302;BME280;36550;50.472;19.744;2023-03-14T14:01:29;96299.89;;;11.72;61.91
50302;BME280;36550;50.472;19.744;2023-03-14T14:04:53;96306.56;;;11.64;62.13
50302;BME280;36550;50.472;19.744;2023-03-14T14:08:17;96311.69;;;11.58;62.27
50302;BME280;36550;50.472;19.744;2023-03-14T14:11:01;96304.94;;;11.51;62.38
50302;BME280;36550;50.472;19.744;2023-03-14T14:13:47;96305.70;;;11.46;62.61
50302;BME280;36550;50.472;19.744;2023-03-14T14:16:32;96303.44;;;11.41;62.88
50302;BME280;36550;50.472;19.744;2023-03-14T14:19:16;96312.86;;;11.35;63.30
50302;BME280;36550;50.472;19.744;2023-03-14T14:22:41;96312.05;;;11.27;63.65
50302;BME280;36550;50.472;19.744;2023-03-14T14:26:05;96313.59;;;11.22;63.74
50302;BME280;36550;50.472;19.744;2023-03-14T14:29:30;96306.36;;;11.21;63.73
50302;BME280;36550;50.472;19.744;2023-03-14T14:32:55;96307.30;;;11.21;64.08
50302;BME280;36550;50.472;19.744;2023-03-14T14:36:19;96313.08;;;11.25;64.26
50302;BME280;36550;50.472;19.744;2023-03-14T14:39:36;96310.88;;;11.25;64.39
50302;BME280;36550;50.472;19.744;2023-03-14T14:43:04;96298.52;;;11.22;64.65
50302;BME280;36550;50.472;19.744;2023-03-14T14:46:28;96285.76;;;11.17;64.93
50302;BME280;36550;50.472;19.744;2023-03-14T14:49:38;96279.13;;;11.13;65.60
50302;BME280;36550;50.472;19.744;2023-03-14T14:52:30;96281.30;;;11.08;66.19
50302;BME280;36550;50.472;19.744;2023-03-14T14:55:17;96280.70;;;11.00;66.10
50302;BME280;36550;50.472;19.744;2023-03-14T14:59:03;96279.73;;;10.96;66.56
50302;BME280;36550;50.472;19.744;2023-03-14T15:01:37;96272.26;;;10.93;66.51
50302;BME280;36550;50.472;19.744;2023-03-14T15:05:00;96280.48;;;10.94;66.71
50302;BME280;36550;50.472;19.744;2023-03-14T15:07:45;96284.99;;;10.95;66.65
50302;BME280;36550;50.472;19.744;2023-03-14T15:11:18;96280.72;;;10.98;66.84
50302;BME280;36550;50.472;19.744;2023-03-14T15:14:39;96276.15;;;10.97;67.26
50302;BME280;36550;50.472;19.744;2023-03-14T15:18:04;96283.75;;;10.94;67.21
50302;BME280;36550;50.472;19.744;2023-03-14T15:21:26;96279.20;;;10.92;67.38
50302;BME280;36550;50.472;19.744;2023-03-14T15:24:50;96268.11;;;10.88;67.48
50302;BME280;36550;50.472;19.744;2023-03-14T15:28:21;96258.77;;;10.88;67.40
50302;BME280;36550;50.472;19.744;2023-03-14T15:31:41;96260.35;;;10.88;67.80
50302;BME280;36550;50.472;19.744;2023-03-14T15:35:05;96260.49;;;10.89;67.66
50302;BME280;36550;50.472;19.744;2023-03-14T15:38:29;96272.55;;;10.91;67.91
50302;BME280;36550;50.472;19.744;2023-03-14T15:41:53;96279.05;;;10.91;68.03
50302;BME280;36550;50.472;19.744;2023-03-14T15:45:17;96285.61;;;10.86;68.15
50302;BME280;36550;50.472;19.744;2023-03-14T15:48:41;96262.90;;;10.79;68.56
50302;BME280;36550;50.472;19.744;2023-03-14T15:51:45;96265.49;;;10.72;68.91
50302;BME280;36550;50.472;19.744;2023-03-14T15:54:53;96277.79;;;10.66;68.86
50302;BME280;36550;50.472;19.744;2023-03-14T15:58:17;96284.21;;;10.63;68.71
50302;BME280;36550;50.472;19.744;2023-03-14T16:01:41;96287.56;;;10.62;69.22
50302;BME280;36550;50.472;19.744;2023-03-14T16:05:05;96304.23;;;10.60;69.29
50302;BME280;36550;50.472;19.744;2023-03-14T16:08:29;96302.43;;;10.55;69.39
50302;BME280;36550;50.472;19.744;2023-03-14T16:11:53;96305.11;;;10.49;69.61
50302;BME280;36550;50.472;19.744;2023-03-14T16:15:17;96306.31;;;10.43;69.77
50302;BME280;36550;50.472;19.744;2023-03-14T16:18:40;96304.45;;;10.40;69.92
50302;BME280;36550;50.472;19.744;2023-03-14T16:22:04;96304.17;;;10.36;70.16
50302;BME280;36550;50.472;19.744;2023-03-14T16:25:28;96298.79;;;10.32;70.17
50302;BME280;36550;50.472;19.744;2023-03-14T16:28:12;96286.41;;;10.30;70.27
50302;BME280;36550;50.472;19.744;2023-03-14T16:31:04;96264.92;;;10.28;70.86
50302;BME280;36550;50.472;19.744;2023-03-14T16:33:49;96266.77;;;10.25;70.77
50302;BME280;36550;50.472;19.744;2023-03-14T16:36:33;96264.42;;;10.18;71.23
50302;BME280;36550;50.472;19.744;2023-03-14T16:39:17;96267.71;;;10.12;71.42
50302;BME280;36550;50.472;19.744;2023-03-14T16:42:41;96264.55;;;10.03;71.59
50302;BME280;36550;50.472;19.744;2023-03-14T16:45:48;96269.88;;;9.96;71.64
50302;BME280;36550;50.472;19.744;2023-03-14T16:49:06;96268.85;;;9.92;71.84
50302;BME280;36550;50.472;19.744;2023-03-14T16:52:29;96275.14;;;9.85;72.14
50302;BME280;36550;50.472;19.744;2023-03-14T16:55:54;96272.77;;;9.78;72.14
50302;BME280;36550;50.472;19.744;2023-03-14T16:59:18;96273.77;;;9.70;72.30
50302;BME280;36550;50.472;19.744;2023-03-14T17:02:42;96284.42;;;9.65;72.24
50302;BME280;36550;50.472;19.744;2023-03-14T17:06:06;96306.18;;;9.61;72.55
50302;BME280;36550;50.472;19.744;2023-03-14T17:09:30;96317.58;;;9.56;73.18
50302;BME280;36550;50.472;19.744;2023-03-14T17:12:54;96313.93;;;9.52;73.19
50302;BME280;36550;50.472;19.744;2023-03-14T17:16:18;96312.42;;;9.48;73.70
50302;BME280;36550;50.472;19.744;2023-03-14T17:19:36;96320.87;;;9.44;74.06
50302;BME280;36550;50.472;19.744;2023-03-14T17:23:00;96318.07;;;9.39;73.75
50302;BME280;36550;50.472;19.744;2023-03-14T17:26:23;96312.73;;;9.36;73.72
50302;BME280;36550;50.472;19.744;2023-03-14T17:29:34;96316.67;;;9.32;74.00
50302;BME280;36550;50.472;19.744;2023-03-14T17:32:18;96326.32;;;9.29;73.67
50302;BME280;36550;50.472;19.744;2023-03-14T17:35:02;96332.20;;;9.24;73.87
50302;BME280;36550;50.472;19.744;2023-03-14T17:37:46;96336.62;;;9.20;73.80
50302;BME280;36550;50.472;19.744;2023-03-14T17:41:11;96339.34;;;9.14;74.05
50302;BME280;36550;50.472;19.744;2023-03-14T17:44:34;96343.95;;;9.10;74.16